MDT,Max TemperatureF,Mean TemperatureF,Min TemperatureF,Max Dew PointF,MeanDew PointF,Min DewpointF,Max Humidity, Mean Humidity, Min Humidity, Max Sea Level PressureIn, Mean Sea Level PressureIn, Min Sea Level PressureIn, Max VisibilityMiles, Mean VisibilityMiles, Min VisibilityMiles, Max Wind SpeedMPH, Mean Wind SpeedMPH, Max Gust SpeedMPH,PrecipitationIn, CloudCover, Events, WindDirDegrees
2013-9-1,86,72,58,62,51,43,84,54,23,30.09,30.03,29.93,10,10,10,13,5,16,0.00,0,,50
2013-9-2,93,74,55,54,51,47,77,52,26,30.08,30.01,29.94,10,10,10,18,10,26,0.00,0,,168
2013-9-3,99,82,64,57,55,52,67,46,24,30.00,29.93,29.85,10,10,10,18,11,24,0.00,0,,168
2013-9-4,100,83,66,59,55,50,68,44,20,30.19,29.99,29.92,10,10,7,21,8,26,0.01,1,Rain,157
2013-9-5,101,87,73,62,54,46,64,40,16,30.07,29.99,29.92,10,10,10,21,10,29,T,0,,157
2013-9-6,106,82,58,50,46,41,65,38,11,29.96,29.90,29.83,10,10,8,16,8,22,0.00,0,,194
2013-9-7,103,83,62,55,47,41,63,38,13,29.93,29.87,29.83,10,10,10,13,5,18,0.00,0,,201
2013-9-8,102,80,58,52,47,38,72,42,11,29.87,29.78,29.70,10,10,10,23,10,30,0.00,0,,193
2013-9-9,98,81,63,64,56,47,81,50,18,29.86,29.75,29.65,10,10,2,22,10,30,0.09,2,Rain-Thunderstorm,9
2013-9-10,86,73,60,59,57,54,90,62,34,30.08,29.97,29.83,10,10,10,20,9,25,0.00,1,,28
2013-9-11,79,70,61,64,62,58,97,77,56,30.24,30.14,30.05,10,9,2,17,6,24,0.17,5,Rain-Thunderstorm,74
2013-9-12,74,69,63,64,62,59,100,81,61,30.29,30.22,30.16,10,9,3,20,8,25,0.02,7,Rain,100
2013-9-13,63,59,55,61,55,53,100,89,78,30.24,30.13,30.00,10,7,2,24,15,31,0.48,8,Rain,133
2013-9-14,83,71,59,67,60,55,87,69,51,29.99,29.89,29.76,10,10,3,18,10,25,0.19,6,Rain-Thunderstorm,149
2013-9-15,63,60,57,61,57,54,93,89,84,30.29,30.12,29.88,10,9,6,18,9,24,0.29,8,Rain,32
2013-9-16,58,56,54,55,53,52,100,93,86,30.29,30.21,30.11,10,8,2,16,11,21,0.01,8,Rain,131
2013-9-17,87,72,56,63,59,55,100,70,40,30.12,29.92,29.73,10,7,2,14,9,21,0.00,4,,167
2013-9-18,94,77,59,62,57,47,97,59,20,29.81,29.69,29.61,10,10,7,28,7,37,0.03,1,Rain-Thunderstorm,296
2013-9-19,70,58,46,58,51,45,90,68,45,30.17,29.95,29.69,10,10,10,29,9,37,0.01,3,Rain-Thunderstorm,349
2013-9-20,79,61,42,48,43,39,93,61,28,30.19,30.09,29.98,10,9,0,14,5,18,0.00,0,Fog,187
2013-9-21,87,66,45,55,48,44,93,59,25,29.97,29.85,29.70,10,10,10,17,9,22,0.00,0,,189
2013-9-22,89,71,53,56,52,45,93,61,29,29.70,29.60,29.48,10,10,8,26,14,37,0.00,0,,150
2013-9-23,72,62,51,52,48,46,83,64,44,29.92,29.59,29.40,10,10,10,33,16,47,T,2,Rain,207
2013-9-24,78,63,48,47,41,34,93,57,20,30.06,29.97,29.88,10,10,10,15,8,21,0.00,0,,313
2013-9-25,88,68,47,48,42,35,80,48,16,29.87,29.63,29.42,10,10,9,29,15,38,0.00,0,,153
2013-9-26,83,67,50,50,47,42,83,56,28,29.65,29.58,29.43,10,10,9,20,8,24,0.00,0,,359
2013-9-27,66,57,47,50,46,44,100,74,48,29.94,29.76,29.57,10,9,2,29,13,36,0.28,4,Rain-Thunderstorm,351
2013-9-28,69,54,38,43,36,28,93,58,22,30.11,30.06,29.92,10,10,9,22,9,32,0.01,1,Rain,284
2013-9-29,82,60,37,45,39,32,92,55,17,30.09,29.93,29.81,10,10,10,15,6,18,0.00,0,,185
2013-9-30,87,65,43,49,40,30,83,48,13,29.81,29.74,29.67,10,10,10,20,8,24,0.00,0,,196